Terminal Aerodrome Forecast
Issued by NWS

Home | Current Version | Previous Version | Text Only | Print | Product List | Glossary On
Versions: 1 2 3 4 5 6 7 8 9 10 11 12 13 14 15 16 17 18 19 20 21 22 23
015
FTUS43 KLSX 200326 AAA
TAFUIN
TAF AMD
KUIN 200326Z 2003/2024 VRB04KT 1/4SM -DZ FG VCSH OVC002
     FM200600 VRB04KT 1/4SM -DZ FG OVC002
     FM201600 14005KT 1SM BR OVC003
     FM202100 13006KT 5SM BR OVC010=

USA.gov is the U.S. government's official web portal to all federal, state and local government web resources and services.